Aviation Digital Data Service (ADDS)

Output produced by METARs form (1114 UTC 24 April 2017)
found at http://www.aviationweather.gov/adds/metars/
 
KJAC 240526Z 2406/2506 20007KT P6SM SCT050 
     FM241000 19006KT P6SM VCSH BKN040 
     FM241500 20008KT P6SM VCSH SCT015 BKN025 
     FM241900 19008KT 6SM -SHRA SCT015 OVC025 
     FM242300 23010G15KT P6SM VCSH SCT020 BKN030 
     FM250500 21009KT 3SM -SHSNRA SCT009 OVC017 AMD LTD TO CLD VIS AND WIND
       
KJAN 240653Z 2407/2506 33003KT P6SM SKC 
     FM241500 32011KT P6SM SKC
       
KJAX 240845Z 2409/2506 23008KT P6SM VCSH BKN015 BKN035 
     TEMPO 2409/2411 27012G20KT BKN015 OVC025 
     FM241200 26010KT P6SM SCT025 BKN040 
     FM241600 27012G18KT P6SM SCT050 
     FM242300 27007KT P6SM SCT030
       
KJBR 240520Z 2406/2506 35006KT P6SM SKC 
     FM250000 VRB03KT P6SM SKC
       
KJFK 240835Z 2409/2512 13003KT P6SM BKN250 
     FM241500 09005KT P6SM BKN150 
     FM241800 12011KT P6SM BKN100 
     FM242200 11011KT P6SM SCT050 BKN080 
     FM250300 07010KT P6SM -RA SCT015 OVC060 
     FM250600 06011KT 5SM -RA BR BKN010 OVC020
       
KJER 240520Z 2406/2506 21006KT P6SM VCSH BKN100 
     TEMPO 2413/2417 6SM -SHRA BR OVC050 
     FM241700 24015G25KT 5SM -SHRA BR OVC035
       
KJHW 240859Z 2409/2506 07004KT P6SM SKC 
     FM241400 09008KT P6SM SCT250 
     FM242200 13010KT P6SM SCT250 
     FM250400 13010KT P6SM SCT100 BKN250 AMD LTD TO CLD VIS AND WIND
       
KJMS 240529Z 2406/2506 07017G26KT P6SM OVC008 
     FM241000 07012G20KT 4SM BR VCSH OVC003 
     FM241200 08010KT 4SM -RA BR OVC003 
     FM241800 02009KT 6SM BR VCSH OVC008 
     FM242100 33013KT P6SM OVC010
       
KJST 241001Z 2410/2506 13005KT P6SM BKN200 
     FM241400 12010G17KT P6SM VCSH OVC060 
     FM242200 12010G17KT 6SM -RA OVC020